Time;durP1;ratioP1;P1;durP2;ratioP2;P2;SDS_P1;SDS_P2;PMS_P1;PMS_P2;Temp;Humidity;BMP_temperature;BMP_pressure;BME280_temperature;BME280_humidity;BME280_pressure;Samples;Min_cycle;Max_cycle;Signal;HPM_P1;HPM_P2
2022/06/09 00:00:09;;;;;;;3.87;1.30;;;17.50;99.90;;;;;;4954169;28;20600;-76
2022/06/09 00:02:38;;;;;;;4.20;1.30;;;17.50;99.90;;;;;;4956515;29;20184;-76
2022/06/09 00:05:06;;;;;;;5.10;1.47;;;17.50;99.90;;;;;;4954294;29;20575;-76
2022/06/09 00:07:33;;;;;;;2.97;1.40;;;17.50;99.90;;;;;;4954157;29;20665;-76
2022/06/09 00:10:08;;;;;;;4.83;1.47;;;17.50;99.90;;;;;;4936664;29;20997;-76
2022/06/09 00:12:35;;;;;;;3.80;1.07;;;17.50;99.90;;;;;;4936355;29;20943;-75
2022/06/09 00:15:04;;;;;;;2.63;1.57;;;17.50;99.90;;;;;;4954316;29;20564;-75
2022/06/09 00:17:30;;;;;;;2.13;0.80;;;17.50;99.90;;;;;;4954505;29;20564;-75
2022/06/09 00:19:56;;;;;;;2.67;1.00;;;17.50;99.90;;;;;;4954314;28;20600;-75
2022/06/09 00:22:22;;;;;;;8.37;1.10;;;17.50;99.90;;;;;;4954107;29;20573;-75
2022/06/09 00:24:48;;;;;;;6.93;1.50;;;17.50;99.90;;;;;;4954822;29;20578;-75
2022/06/09 00:27:14;;;;;;;4.23;1.13;;;17.50;99.90;;;;;;4953853;29;20200;-75
2022/06/09 00:29:39;;;;;;;4.60;1.20;;;17.50;99.90;;;;;;4953350;28;20203;-76
2022/06/09 00:32:06;;;;;;;3.20;1.13;;;17.50;99.90;;;;;;4952980;29;20600;-76
2022/06/09 00:34:32;;;;;;;6.20;1.00;;;17.40;99.90;;;;;;4953379;29;21127;-76
2022/06/09 00:36:57;;;;;;;3.03;1.13;;;17.40;99.90;;;;;;4953772;29;20564;-76
2022/06/09 00:39:23;;;;;;;5.23;1.30;;;17.40;99.90;;;;;;4958573;28;20188;-75
2022/06/09 00:41:49;;;;;;;4.33;1.30;;;17.40;99.90;;;;;;4953124;29;20176;-76
2022/06/09 00:44:21;;;;;;;8.10;1.47;;;17.40;99.90;;;;;;4953462;29;20173;-76
2022/06/09 00:46:55;;;;;;;2.60;1.00;;;17.40;99.90;;;;;;4936289;29;20607;-76
2022/06/09 00:49:32;;;;;;;4.57;1.10;;;17.30;99.90;;;;;;4953184;28;20703;-76
2022/06/09 00:52:01;;;;;;;7.17;1.23;;;17.30;99.90;;;;;;4952703;29;20599;-75
2022/06/09 00:54:36;;;;;;;6.07;1.10;;;17.30;99.90;;;;;;4953370;29;20659;-76
2022/06/09 00:57:07;;;;;;;4.23;1.30;;;17.30;99.90;;;;;;4952910;29;20564;-75
2022/06/09 00:59:35;;;;;;;3.00;1.23;;;17.30;99.90;;;;;;4953261;28;20650;-75
2022/06/09 01:02:06;;;;;;;2.93;1.00;;;17.30;99.90;;;;;;4952931;29;21007;-75
2022/06/09 01:04:33;;;;;;;6.47;2.13;;;17.30;99.90;;;;;;4953263;29;20568;-75
2022/06/09 01:07:09;;;;;;;6.50;1.63;;;17.30;99.90;;;;;;4951860;29;20619;-75
2022/06/09 01:09:35;;;;;;;3.80;1.00;;;17.30;99.90;;;;;;4953616;28;20611;-75
2022/06/09 01:12:01;;;;;;;5.20;1.33;;;17.30;99.90;;;;;;4956577;29;20659;-75
2022/06/09 01:14:32;;;;;;;1.80;0.80;;;17.30;99.90;;;;;;4957231;29;20572;-75
2022/06/09 01:17:20;;;;;;;6.63;1.30;;;17.40;99.90;;;;;;4960930;29;20576;-75
2022/06/09 01:20:07;;;;;;;3.77;1.40;;;17.40;99.90;;;;;;4956686;28;20608;-75
2022/06/09 01:22:55;;;;;;;4.33;2.00;;;17.40;99.90;;;;;;4956659;29;20599;-76
2022/06/09 01:25:49;;;;;;;2.73;0.97;;;17.40;99.90;;;;;;4955426;29;20627;-76
2022/06/09 01:28:53;;;;;;;3.30;1.30;;;17.40;99.90;;;;;;4956779;28;20665;-75
2022/06/09 01:31:36;;;;;;;5.00;1.30;;;17.40;99.90;;;;;;4954835;29;20575;-75
2022/06/09 01:34:37;;;;;;;4.83;1.10;;;17.40;99.90;;;;;;4956954;29;20577;-75
2022/06/09 01:37:09;;;;;;;5.67;1.00;;;17.40;99.90;;;;;;4878703;29;21247;-76
2022/06/09 01:39:52;;;;;;;6.37;1.50;;;17.40;99.90;;;;;;4943567;28;20641;-76
2022/06/09 01:42:22;;;;;;;5.30;1.30;;;17.40;99.90;;;;;;4956006;29;20584;-76
2022/06/09 01:44:48;;;;;;;3.33;1.00;;;17.40;99.90;;;;;;4956791;29;20643;-76
2022/06/09 01:47:17;;;;;;;4.13;1.20;;;17.40;99.90;;;;;;4956724;29;20627;-76
2022/06/09 01:49:45;;;;;;;2.97;0.90;;;17.40;99.90;;;;;;4956416;28;21010;-76
2022/06/09 01:52:11;;;;;;;5.30;1.00;;;17.40;99.90;;;;;;4956781;29;20580;-76
2022/06/09 01:54:38;;;;;;;6.63;2.00;;;17.40;99.90;;;;;;4959662;29;20664;-76
2022/06/09 01:57:17;;;;;;;2.73;1.20;;;17.30;99.90;;;;;;4956545;29;20933;-76
2022/06/09 01:59:49;;;;;;;5.07;1.00;;;17.30;99.90;;;;;;4956176;28;20608;-76
2022/06/09 02:02:24;;;;;;;3.80;1.00;;;17.30;99.90;;;;;;4956254;29;20593;-76
2022/06/09 02:04:57;;;;;;;5.33;1.20;;;17.30;99.90;;;;;;4956434;29;20581;-76
2022/06/09 02:07:27;;;;;;;3.67;1.17;;;17.30;99.90;;;;;;4956185;29;20739;-76
2022/06/09 02:09:54;;;;;;;6.23;1.50;;;17.30;99.90;;;;;;4955769;28;21080;-76
2022/06/09 02:12:25;;;;;;;4.30;0.83;;;17.30;99.90;;;;;;4938729;29;20568;-76
2022/06/09 02:14:58;;;;;;;5.27;1.10;;;17.30;99.90;;;;;;4956430;29;20571;-76
2022/06/09 02:17:23;;;;;;;4.63;1.40;;;17.30;99.90;;;;;;4956351;29;20608;-76
2022/06/09 02:19:51;;;;;;;4.00;1.10;;;17.30;99.90;;;;;;4955731;28;21061;-76
2022/06/09 02:22:17;;;;;;;5.50;2.20;;;17.30;99.90;;;;;;4955537;29;20583;-75
2022/06/09 02:24:43;;;;;;;3.67;0.97;;;17.30;99.90;;;;;;4956204;29;20568;-76
2022/06/09 02:27:09;;;;;;;5.77;1.00;;;17.30;99.90;;;;;;4939148;29;20623;-76
2022/06/09 02:29:35;;;;;;;5.07;1.20;;;17.30;99.90;;;;;;4941439;29;20199;-75
2022/06/09 02:32:01;;;;;;;4.40;1.03;;;17.30;99.90;;;;;;4956283;29;20560;-75
2022/06/09 02:34:27;;;;;;;4.63;1.67;;;17.30;99.90;;;;;;4957477;29;20184;-73
2022/06/09 02:36:53;;;;;;;3.30;1.20;;;17.30;99.90;;;;;;4938699;29;20568;-75
2022/06/09 02:39:19;;;;;;;9.07;1.23;;;17.30;99.90;;;;;;4955556;28;20203;-75
2022/06/09 02:41:44;;;;;;;8.70;1.70;;;17.30;99.90;;;;;;4955094;29;20619;-75
2022/06/09 02:44:10;;;;;;;8.40;1.27;;;17.30;99.90;;;;;;4956390;29;20183;-76
2022/06/09 02:46:39;;;;;;;6.07;1.57;;;17.30;99.90;;;;;;4955719;29;20176;-75
2022/06/09 02:49:05;;;;;;;3.30;1.20;;;17.30;99.90;;;;;;4955657;28;20193;-76
2022/06/09 02:51:34;;;;;;;3.83;0.87;;;17.30;99.90;;;;;;4954636;29;20568;-76
2022/06/09 02:54:03;;;;;;;8.23;1.63;;;17.30;99.90;;;;;;4938331;29;20572;-75
2022/06/09 02:56:29;;;;;;;6.03;1.57;;;17.30;99.90;;;;;;4955387;29;20974;-75
2022/06/09 02:58:56;;;;;;;5.67;1.07;;;17.30;99.90;;;;;;4955505;28;20603;-74
2022/06/09 03:01:24;;;;;;;3.20;1.10;;;17.30;99.90;;;;;;4954703;29;21036;-75
2022/06/09 03:03:50;;;;;;;5.83;1.10;;;17.30;99.90;;;;;;4955372;29;20664;-74
2022/06/09 03:06:16;;;;;;;4.33;1.33;;;17.30;99.90;;;;;;4955311;29;21136;-75
2022/06/09 03:08:42;;;;;;;6.90;1.40;;;17.30;99.90;;;;;;4957980;28;20643;-75
2022/06/09 03:11:10;;;;;;;7.13;1.40;;;17.30;99.90;;;;;;4954602;29;20607;-74
2022/06/09 03:13:38;;;;;;;6.20;1.80;;;17.30;99.90;;;;;;4955705;29;20589;-83
2022/06/09 03:16:05;;;;;;;5.90;1.60;;;17.20;99.90;;;;;;4955608;29;20576;-82
2022/06/09 03:18:30;;;;;;;4.30;1.37;;;17.20;99.90;;;;;;4937827;29;21427;-82
2022/06/09 03:20:56;;;;;;;7.07;1.73;;;17.20;99.90;;;;;;4954931;29;20576;-82
2022/06/09 03:23:22;;;;;;;5.07;1.50;;;17.20;99.90;;;;;;4955493;29;20245;-82
2022/06/09 03:25:48;;;;;;;5.17;1.23;;;17.20;99.90;;;;;;4955113;29;20172;-83
2022/06/09 03:28:13;;;;;;;6.63;1.90;;;17.20;99.90;;;;;;4955176;28;20200;-82
2022/06/09 03:30:39;;;;;;;8.40;2.00;;;17.20;99.90;;;;;;4954646;29;20266;-82
2022/06/09 03:33:05;;;;;;;5.20;2.20;;;17.20;99.90;;;;;;4954923;28;20176;-83
2022/06/09 03:35:32;;;;;;;8.03;2.30;;;17.20;99.90;;;;;;4955047;29;20161;-82
2022/06/09 03:37:58;;;;;;;5.03;2.07;;;17.20;99.90;;;;;;4955031;28;20579;-82
2022/06/09 03:40:25;;;;;;;6.80;1.97;;;17.20;99.90;;;;;;4954736;29;20564;-82
2022/06/09 03:42:52;;;;;;;5.67;1.90;;;17.10;99.90;;;;;;4955347;29;20560;-83
2022/06/09 03:45:17;;;;;;;5.30;1.90;;;17.10;99.90;;;;;;4961763;29;20973;-83
2022/06/09 03:47:44;;;;;;;9.73;2.20;;;17.20;99.90;;;;;;4956762;28;20644;-84
2022/06/09 03:50:17;;;;;;;4.07;1.57;;;17.20;99.90;;;;;;4955109;29;20719;-82
2022/06/09 03:52:43;;;;;;;3.97;1.70;;;17.20;99.90;;;;;;4954477;29;21001;-82
2022/06/09 03:55:09;;;;;;;4.13;1.80;;;17.20;99.90;;;;;;4954508;29;20607;-83
2022/06/09 03:57:35;;;;;;;6.53;2.13;;;17.20;99.90;;;;;;4955903;29;20172;-84
2022/06/09 04:00:01;;;;;;;6.40;2.27;;;17.20;99.90;;;;;;4955611;28;20604;-83
2022/06/09 04:02:27;;;;;;;10.30;2.10;;;17.20;99.90;;;;;;4956296;29;20165;-83
2022/06/09 04:04:53;;;;;;;7.43;1.87;;;17.30;99.90;;;;;;4954862;29;20994;-84
2022/06/09 04:07:19;;;;;;;7.07;1.90;;;17.30;99.90;;;;;;4955681;29;20723;-82
2022/06/09 04:09:45;;;;;;;7.93;2.03;;;17.30;99.90;;;;;;4955194;28;20196;-82
2022/06/09 04:12:11;;;;;;;7.97;2.00;;;17.30;99.90;;;;;;4955322;29;20587;-82
2022/06/09 04:14:37;;;;;;;7.77;2.10;;;17.40;99.90;;;;;;4957472;29;20195;-82
2022/06/09 04:17:03;;;;;;;5.90;2.17;;;17.40;99.90;;;;;;4955339;29;20641;-83
2022/06/09 04:19:28;;;;;;;10.33;2.30;;;17.40;99.90;;;;;;4958436;28;20203;-85
2022/06/09 04:21:54;;;;;;;6.00;2.00;;;17.50;99.90;;;;;;4959696;29;20603;-83
2022/06/09 04:24:20;;;;;;;5.67;1.80;;;17.60;99.90;;;;;;4956071;29;20572;-83
2022/06/09 04:26:47;;;;;;;4.73;1.50;;;17.60;99.90;;;;;;4956780;29;20607;-83
2022/06/09 04:29:13;;;;;;;4.87;2.00;;;17.70;99.90;;;;;;4955426;28;20199;-82
2022/06/09 04:31:41;;;;;;;8.40;2.27;;;17.80;99.90;;;;;;4954377;29;20560;-82
2022/06/09 04:34:07;;;;;;;8.67;2.00;;;17.80;99.90;;;;;;4954181;29;20563;-84
2022/06/09 04:36:33;;;;;;;9.20;1.83;;;17.90;99.90;;;;;;4954525;29;20599;-82
2022/06/09 04:39:00;;;;;;;7.83;2.20;;;17.90;99.90;;;;;;4954207;28;20639;-82
2022/06/09 04:41:27;;;;;;;6.73;2.17;;;18.00;99.90;;;;;;4936179;29;20568;-82
2022/06/09 04:43:52;;;;;;;11.13;2.27;;;18.00;99.90;;;;;;4952967;28;20564;-82
2022/06/09 04:46:22;;;;;;;8.40;2.00;;;18.10;99.90;;;;;;4953863;29;20664;-82
2022/06/09 04:48:48;;;;;;;5.10;1.97;;;18.10;99.90;;;;;;4936275;29;20242;-82
2022/06/09 04:51:17;;;;;;;5.17;2.17;;;18.10;99.90;;;;;;4952005;29;20603;-84
2022/06/09 04:53:43;;;;;;;7.37;3.70;;;18.10;99.90;;;;;;4953748;29;20572;-83
2022/06/09 04:56:09;;;;;;;5.40;2.00;;;18.10;99.90;;;;;;4954836;29;20635;-84
2022/06/09 04:58:39;;;;;;;4.77;2.30;;;18.10;99.90;;;;;;4958595;28;21176;-84
2022/06/09 05:01:06;;;;;;;6.73;2.70;;;18.20;99.90;;;;;;4953534;29;20568;-81
2022/06/09 05:03:33;;;;;;;4.60;2.40;;;18.20;99.90;;;;;;4954054;29;21098;-80
2022/06/09 05:05:59;;;;;;;5.43;2.87;;;18.20;99.90;;;;;;4953754;29;20583;-81
2022/06/09 05:08:25;;;;;;;6.00;2.60;;;18.30;99.90;;;;;;4953506;28;20647;-81
2022/06/09 05:10:51;;;;;;;7.97;2.60;;;18.30;99.90;;;;;;4935938;29;20576;-80
2022/06/09 05:13:17;;;;;;;9.50;2.67;;;18.40;99.90;;;;;;4952666;29;20582;-80
2022/06/09 05:15:52;;;;;;;5.90;2.43;;;18.50;99.90;;;;;;4936533;29;20568;-81
2022/06/09 05:18:19;;;;;;;8.37;2.43;;;18.50;99.90;;;;;;4936811;29;20620;-80
2022/06/09 05:20:45;;;;;;;5.50;1.97;;;18.60;99.90;;;;;;4953192;29;20576;-81
2022/06/09 05:23:11;;;;;;;6.30;2.33;;;18.70;99.90;;;;;;4937241;29;20993;-81
2022/06/09 05:25:37;;;;;;;5.63;2.20;;;18.80;99.90;;;;;;4954288;29;20587;-81
2022/06/09 05:28:03;;;;;;;4.30;2.47;;;18.80;99.90;;;;;;4953964;28;20204;-81
2022/06/09 05:30:29;;;;;;;6.60;2.10;;;18.90;99.90;;;;;;4952624;28;20185;-81
2022/06/09 05:32:55;;;;;;;5.53;2.00;;;18.90;99.90;;;;;;4937435;29;21000;-81
2022/06/09 05:35:22;;;;;;;8.10;2.73;;;19.00;99.90;;;;;;4927081;29;20579;-81
2022/06/09 05:46:06;;;;;;;9.27;3.03;;;19.40;99.90;;;;;;4945769;28;20576;-83
2022/06/09 05:48:32;;;;;;;5.77;2.33;;;19.50;99.90;;;;;;4974353;28;20674;-82
2022/06/09 05:50:59;;;;;;;6.10;2.77;;;19.60;99.90;;;;;;4970110;28;20564;-84
2022/06/09 05:53:25;;;;;;;9.07;3.30;;;19.60;99.90;;;;;;4953378;28;20921;-82
2022/06/09 05:55:50;;;;;;;7.17;2.50;;;19.60;99.90;;;;;;4954301;28;20639;-82
2022/06/09 05:58:18;;;;;;;10.60;2.57;;;19.60;99.90;;;;;;4978424;28;20247;-82
2022/06/09 06:00:45;;;;;;;9.50;2.50;;;19.50;99.90;;;;;;4964326;29;20181;-82
2022/06/09 06:03:13;;;;;;;8.53;2.40;;;19.50;99.90;;;;;;4969312;28;20580;-82
2022/06/09 06:08:25;;;;;;;7.53;2.60;;;19.50;99.90;;;;;;4961608;28;20639;-83
2022/06/09 06:10:52;;;;;;;11.63;3.60;;;19.60;99.90;;;;;;4979817;28;20584;-83
2022/06/09 06:13:18;;;;;;;8.00;3.20;;;19.60;99.90;;;;;;4967698;28;20639;-84
2022/06/09 06:15:45;;;;;;;13.20;3.00;;;19.60;99.90;;;;;;4963561;28;20568;-84
2022/06/09 06:18:11;;;;;;;8.20;3.13;;;19.60;99.90;;;;;;4963804;28;20207;-83
2022/06/09 06:20:37;;;;;;;8.67;3.03;;;19.70;99.90;;;;;;4963707;29;20572;-82
2022/06/09 06:23:03;;;;;;;10.40;3.10;;;19.80;99.90;;;;;;4965743;28;20357;-84
2022/06/09 06:25:28;;;;;;;6.73;2.90;;;19.80;99.90;;;;;;4962873;28;20185;-84
2022/06/09 06:27:54;;;;;;;11.47;4.13;;;19.80;99.90;;;;;;4964128;28;20636;-84
2022/06/09 06:30:21;;;;;;;6.03;2.60;;;19.90;99.90;;;;;;4945755;28;20206;-84
2022/06/09 06:32:47;;;;;;;5.50;2.90;;;19.90;99.90;;;;;;4959389;28;20708;-84
2022/06/09 06:35:14;;;;;;;6.23;2.77;;;19.90;99.90;;;;;;4960747;28;20579;-83
2022/06/09 06:37:40;;;;;;;9.33;3.10;;;20.00;99.90;;;;;;4940928;29;20638;-83
2022/06/09 06:40:09;;;;;;;10.27;3.40;;;20.10;99.90;;;;;;4957729;28;20627;-84
2022/06/09 06:42:34;;;;;;;7.00;3.17;;;20.10;99.90;;;;;;4971652;28;20583;-84
2022/06/09 06:45:00;;;;;;;7.97;3.60;;;20.20;99.90;;;;;;4958584;28;20572;-84
2022/06/09 06:47:27;;;;;;;7.57;3.57;;;20.20;99.90;;;;;;4957542;28;20239;-84
2022/06/09 06:49:52;;;;;;;7.50;3.10;;;20.20;99.90;;;;;;4962310;28;20614;-84
2022/06/09 06:52:18;;;;;;;7.37;2.93;;;20.30;99.90;;;;;;4958748;28;20663;-84
2022/06/09 06:54:44;;;;;;;5.97;3.27;;;20.40;99.90;;;;;;4959796;28;20256;-85
2022/06/09 06:57:10;;;;;;;9.80;3.10;;;20.40;99.90;;;;;;4941639;29;20195;-84
2022/06/09 06:59:35;;;;;;;5.73;2.53;;;20.40;99.90;;;;;;4959315;28;20594;-82
2022/06/09 07:02:01;;;;;;;6.30;2.83;;;20.40;99.90;;;;;;4960471;28;20803;-86
2022/06/09 07:04:27;;;;;;;6.20;3.10;;;20.40;99.90;;;;;;4961767;28;20203;-84
2022/06/09 07:06:53;;;;;;;7.40;3.20;;;20.40;99.90;;;;;;4961951;28;20207;-85
2022/06/09 07:09:20;;;;;;;7.83;2.93;;;20.30;99.90;;;;;;4952692;28;20655;-85
2022/06/09 07:11:45;;;;;;;7.73;3.37;;;20.30;99.90;;;;;;4948599;29;20588;-84
2022/06/09 07:14:12;;;;;;;12.57;3.50;;;20.30;99.90;;;;;;4962550;29;20288;-84
2022/06/09 07:16:38;;;;;;;5.63;2.60;;;20.30;99.90;;;;;;4955872;29;20176;-87
2022/06/09 07:19:05;;;;;;;8.10;3.10;;;20.20;99.90;;;;;;4956292;28;20607;-87
2022/06/09 07:21:31;;;;;;;9.73;3.23;;;20.30;99.90;;;;;;4958551;29;21105;-87
2022/06/09 07:23:58;;;;;;;7.10;3.13;;;20.30;99.90;;;;;;4956830;29;21119;-87
2022/06/09 07:26:24;;;;;;;9.60;3.50;;;20.30;99.90;;;;;;4963056;29;20604;-87
2022/06/09 07:28:49;;;;;;;5.70;2.57;;;20.30;99.90;;;;;;4956981;28;20658;-86
2022/06/09 07:31:15;;;;;;;6.80;2.70;;;20.40;99.90;;;;;;4951984;28;20600;-85
2022/06/09 07:33:41;;;;;;;6.87;2.90;;;20.40;99.90;;;;;;4954438;28;20271;-86
2022/06/09 07:36:12;;;;;;;9.70;3.20;;;20.40;99.90;;;;;;4946051;29;20184;-85
2022/06/09 07:38:37;;;;;;;6.40;3.10;;;20.50;99.90;;;;;;4961443;28;20620;-84
2022/06/09 07:41:05;;;;;;;7.47;3.07;;;20.50;99.90;;;;;;4943875;28;20576;-84
2022/06/09 07:43:31;;;;;;;11.30;3.10;;;20.50;99.90;;;;;;4963131;28;20221;-83
2022/06/09 07:45:57;;;;;;;5.57;2.90;;;20.60;99.90;;;;;;4945808;28;20572;-84
2022/06/09 07:48:22;;;;;;;6.67;2.80;;;20.60;99.90;;;;;;4961171;28;20298;-82
2022/06/09 07:50:50;;;;;;;6.40;3.53;;;20.60;99.90;;;;;;4963108;28;20600;-86
2022/06/09 07:53:20;;;;;;;5.10;2.70;;;20.70;99.90;;;;;;4964344;29;20176;-84
2022/06/09 07:55:46;;;;;;;4.87;3.40;;;20.80;99.90;;;;;;4950924;28;20580;-85
2022/06/09 07:58:13;;;;;;;8.23;4.03;;;20.90;99.90;;;;;;4966246;28;20691;-82
2022/06/09 08:00:40;;;;;;;4.93;3.90;;;20.90;99.90;;;;;;4948636;29;20599;-83
2022/06/09 08:03:07;;;;;;;8.60;3.73;;;21.00;99.90;;;;;;4962429;28;20576;-83
2022/06/09 08:05:34;;;;;;;6.03;3.80;;;21.00;99.90;;;;;;4970174;29;20584;-83
2022/06/09 08:08:00;;;;;;;6.23;3.40;;;21.00;99.90;;;;;;4948014;28;21057;-85
2022/06/09 08:10:29;;;;;;;6.17;3.27;;;20.90;99.90;;;;;;4963578;28;20567;-84
2022/06/09 08:13:01;;;;;;;3.97;3.37;;;20.80;99.90;;;;;;4963667;28;21353;-84
2022/06/09 08:15:28;;;;;;;13.63;3.83;;;20.80;99.90;;;;;;4960441;28;20612;-82
2022/06/09 08:17:56;;;;;;;8.07;3.33;;;20.70;99.90;;;;;;4970024;28;20568;-86
2022/06/09 08:20:23;;;;;;;5.20;3.33;;;20.70;99.90;;;;;;4949778;29;20595;-86
2022/06/09 08:22:49;;;;;;;8.67;3.63;;;20.60;99.90;;;;;;4944504;29;20604;-86
2022/06/09 08:25:18;;;;;;;7.03;2.97;;;20.60;99.90;;;;;;4956635;28;20579;-86
2022/06/09 08:27:44;;;;;;;8.10;3.73;;;20.60;99.90;;;;;;4939190;29;20316;-87
2022/06/09 08:30:12;;;;;;;6.37;3.63;;;20.60;99.90;;;;;;4937248;29;20617;-85
2022/06/09 08:32:38;;;;;;;3.93;2.67;;;20.60;99.90;;;;;;4958504;28;20610;-85
2022/06/09 08:35:09;;;;;;;7.47;3.10;;;20.50;99.90;;;;;;4941047;29;20636;-84
2022/06/09 08:37:35;;;;;;;6.00;3.13;;;20.50;99.90;;;;;;4944482;29;21122;-84
2022/06/09 08:40:01;;;;;;;4.20;3.10;;;20.60;99.90;;;;;;4946676;29;20615;-84
2022/06/09 08:42:46;;;;;;;9.07;4.10;;;20.60;99.90;;;;;;4947047;29;20588;-85
2022/06/09 08:45:31;;;;;;;5.73;2.60;;;20.60;99.90;;;;;;4946738;29;20584;-85
2022/06/09 08:47:59;;;;;;;4.80;2.53;;;20.60;99.90;;;;;;4943539;29;20668;-84
2022/06/09 08:50:31;;;;;;;6.77;3.60;;;20.60;99.90;;;;;;4942494;29;20613;-84
2022/06/09 08:53:21;;;;;;;6.33;3.03;;;20.70;99.90;;;;;;4944752;29;20588;-84
2022/06/09 08:55:51;;;;;;;5.00;2.63;;;20.70;99.90;;;;;;4940689;29;20740;-83
2022/06/09 08:58:44;;;;;;;6.10;3.23;;;20.70;99.90;;;;;;4938374;29;20616;-85
2022/06/09 09:01:10;;;;;;;3.83;2.77;;;20.70;99.90;;;;;;4943790;29;20592;-86
2022/06/09 09:03:47;;;;;;;10.70;3.60;;;20.80;99.90;;;;;;4946764;29;20589;-86
2022/06/09 09:06:40;;;;;;;6.30;2.60;;;20.80;99.90;;;;;;4943593;29;20240;-86
2022/06/09 09:09:30;;;;;;;6.30;3.10;;;20.80;99.90;;;;;;4942266;29;20684;-85
2022/06/09 09:12:12;;;;;;;6.20;2.70;;;20.90;99.90;;;;;;4921540;29;20671;-86
2022/06/09 09:14:51;;;;;;;5.73;3.63;;;20.80;99.90;;;;;;4939312;29;20584;-85
2022/06/09 09:17:37;;;;;;;4.27;2.83;;;20.80;99.90;;;;;;4944906;29;20569;-85
2022/06/09 09:20:22;;;;;;;6.33;2.97;;;20.70;99.90;;;;;;4942913;29;20754;-85
2022/06/09 09:23:10;;;;;;;5.83;3.20;;;20.70;99.90;;;;;;4970266;28;20596;-86
2022/06/09 09:25:42;;;;;;;4.87;2.70;;;20.70;99.90;;;;;;4965105;29;20579;-86
2022/06/09 09:28:23;;;;;;;5.93;2.87;;;20.60;99.90;;;;;;4955448;28;20803;-85
2022/06/09 09:31:18;;;;;;;5.63;2.70;;;20.60;99.90;;;;;;4964470;28;20983;-85
2022/06/09 09:33:45;;;;;;;5.37;2.63;;;20.60;99.90;;;;;;4973832;28;20572;-84
2022/06/09 09:36:22;;;;;;;9.90;2.53;;;20.60;99.90;;;;;;4974592;28;20576;-84
2022/06/09 09:39:11;;;;;;;5.53;2.43;;;20.60;99.90;;;;;;4958761;29;20603;-85
2022/06/09 09:41:39;;;;;;;6.43;2.60;;;20.60;99.90;;;;;;4975360;28;20572;-86
2022/06/09 09:44:22;;;;;;;7.53;1.90;;;20.70;99.90;;;;;;4955233;28;20571;-85
2022/06/09 09:46:58;;;;;;;6.07;2.63;;;20.90;99.90;;;;;;4973015;28;20598;-85
2022/06/09 09:49:42;;;;;;;5.17;2.23;;;21.20;99.90;;;;;;4953785;28;20599;-83
2022/06/09 09:52:38;;;;;;;5.57;2.63;;;21.50;99.90;;;;;;4964867;28;20575;-82
2022/06/09 09:55:21;;;;;;;6.23;2.73;;;21.90;99.90;;;;;;4964905;29;20560;-86
2022/06/09 09:57:47;;;;;;;4.07;2.40;;;22.20;99.90;;;;;;4960981;23;20791;-76
2022/06/09 10:00:27;;;;;;;4.23;2.07;;;22.60;99.90;;;;;;4926568;29;21081;-77
2022/06/09 10:09:01;;;;;;;2.30;1.63;;;23.30;99.90;;;;;;4943174;29;20626;-75
2022/06/09 10:11:55;;;;;;;4.00;1.50;;;23.50;99.90;;;;;;4958972;29;20567;-75
2022/06/09 10:14:27;;;;;;;5.67;2.03;;;23.70;99.90;;;;;;4925710;29;20594;-75
2022/06/09 10:16:54;;;;;;;5.13;2.57;;;23.70;99.90;;;;;;4922664;29;20603;-75
2022/06/09 10:19:26;;;;;;;4.37;2.07;;;23.70;99.90;;;;;;4939149;29;21715;-75
2022/06/09 10:21:59;;;;;;;5.23;2.03;;;23.70;99.90;;;;;;4954833;29;20972;-75
2022/06/09 10:24:38;;;;;;;8.40;2.87;;;23.70;99.90;;;;;;4938609;29;20993;-75
2022/06/09 10:27:06;;;;;;;5.23;2.43;;;23.80;99.90;;;;;;4955391;28;20631;-77
2022/06/09 10:29:51;;;;;;;6.40;1.80;;;23.80;99.90;;;;;;4921727;29;20564;-75
2022/06/09 10:32:28;;;;;;;4.53;1.60;;;23.80;99.90;;;;;;4938222;29;20576;-76
2022/06/09 10:35:12;;;;;;;4.90;1.90;;;24.10;99.90;;;;;;4907120;29;20579;-76
2022/06/09 10:37:56;;;;;;;4.20;1.23;;;24.40;99.90;;;;;;4921280;29;20620;-76
2022/06/09 10:40:33;;;;;;;4.13;2.00;;;24.70;99.90;;;;;;4920580;29;21178;-76
2022/06/09 10:43:17;;;;;;;5.10;2.67;;;25.00;99.90;;;;;;4918555;29;20569;-76
2022/06/09 10:45:42;;;;;;;6.23;2.30;;;25.50;99.90;;;;;;4940486;29;21030;-76
2022/06/09 10:57:14;;;;;;;3.63;1.70;;;26.10;99.90;;;;;;4936003;29;20685;-76
2022/06/09 10:59:57;;;;;;;4.47;2.03;;;26.10;99.90;;;;;;4935929;29;20588;-76
2022/06/09 11:02:28;;;;;;;7.60;3.57;;;25.90;99.90;;;;;;4902797;29;20585;-76
2022/06/09 11:04:54;;;;;;;5.67;3.90;;;25.80;99.90;;;;;;4935501;29;20581;-76
2022/06/09 11:07:29;;;;;;;5.97;3.07;;;25.70;99.90;;;;;;4939277;28;21195;-76
2022/06/09 11:10:40;;;;;;;5.23;2.40;;;25.90;99.90;;;;;;4952903;29;21143;-77
2022/06/09 11:13:28;;;;;;;3.37;1.97;;;26.30;99.90;;;;;;4951961;29;20611;-77
2022/06/09 11:16:02;;;;;;;3.60;1.30;;;27.00;99.90;;;;;;4947618;28;20576;-76
2022/06/09 11:19:05;;;;;;;3.30;1.00;;;27.80;99.90;;;;;;4954245;29;20572;-76
2022/06/09 11:21:40;;;;;;;3.17;1.03;;;28.40;99.90;;;;;;4938048;29;20638;-76
2022/06/09 11:24:14;;;;;;;3.80;1.00;;;29.00;99.90;;;;;;4955392;29;20574;-76
2022/06/09 11:26:47;;;;;;;6.00;1.40;;;29.30;99.90;;;;;;4954310;28;20640;-76
2022/06/09 11:29:32;;;;;;;5.10;1.77;;;29.50;99.90;;;;;;4954829;29;20667;-76
2022/06/09 11:32:07;;;;;;;3.57;1.90;;;29.50;99.90;;;;;;4920283;29;20671;-76
2022/06/09 11:34:33;;;;;;;4.07;2.43;;;29.50;99.90;;;;;;4921024;29;20647;-76
2022/06/09 11:37:05;;;;;;;3.10;1.17;;;29.80;99.90;;;;;;4954345;28;21279;-76
2022/06/09 11:39:31;;;;;;;3.77;1.20;;;29.80;99.60;;;;;;4954648;29;20172;-76
2022/06/09 11:42:29;;;;;;;4.33;0.90;;;29.70;98.00;;;;;;4936120;29;20556;-76
2022/06/09 11:44:58;;;;;;;3.93;1.17;;;29.30;95.00;;;;;;4952987;28;20186;-76
2022/06/09 11:47:34;;;;;;;2.97;1.00;;;28.90;95.20;;;;;;4953466;28;20710;-76
2022/06/09 11:50:06;;;;;;;2.53;1.30;;;28.60;95.30;;;;;;4936785;29;20588;-76
2022/06/09 11:52:42;;;;;;;3.53;1.03;;;28.50;96.60;;;;;;4952041;28;20640;-78
2022/06/09 11:55:27;;;;;;;5.33;1.20;;;28.40;97.10;;;;;;4954098;28;20568;-78
2022/06/09 11:57:53;;;;;;;3.17;1.30;;;28.60;97.90;;;;;;4956485;28;21233;-81
2022/06/09 12:00:19;;;;;;;4.80;1.77;;;28.70;98.30;;;;;;4977625;28;20579;-83
2022/06/09 12:02:56;;;;;;;4.83;1.73;;;28.90;98.70;;;;;;4945328;28;20187;-82
2022/06/09 12:05:52;;;;;;;2.40;1.00;;;29.10;97.60;;;;;;4956690;28;20575;-82
2022/06/09 12:08:31;;;;;;;3.87;1.20;;;29.30;97.00;;;;;;4955939;28;21005;-75
2022/06/09 12:11:14;;;;;;;3.10;1.33;;;29.50;97.80;;;;;;4954542;28;20971;-75
2022/06/09 12:14:03;;;;;;;4.20;1.60;;;29.70;96.40;;;;;;4955827;28;20583;-75
2022/06/09 12:16:35;;;;;;;6.50;1.70;;;29.80;95.20;;;;;;4955022;28;20608;-75
2022/06/09 12:19:23;;;;;;;2.73;1.20;;;29.70;94.10;;;;;;4939786;28;20942;-75
2022/06/09 12:21:53;;;;;;;3.60;1.20;;;29.30;92.60;;;;;;4972015;28;20933;-75
2022/06/09 12:24:22;;;;;;;3.53;2.10;;;28.80;91.40;;;;;;4955505;28;20587;-75
2022/06/09 12:26:55;;;;;;;3.83;1.57;;;28.30;91.60;;;;;;4954822;28;20674;-76
2022/06/09 12:29:30;;;;;;;5.03;1.40;;;27.80;90.40;;;;;;4955658;28;20571;-75
2022/06/09 12:32:08;;;;;;;4.80;2.10;;;27.30;91.20;;;;;;4954035;28;20555;-75
2022/06/09 12:34:54;;;;;;;2.47;1.20;;;26.90;91.40;;;;;;4970250;28;20662;-75
2022/06/09 12:37:29;;;;;;;6.80;1.93;;;26.60;92.10;;;;;;4952553;28;21254;-75
2022/06/09 12:40:05;;;;;;;4.53;2.60;;;26.60;93.30;;;;;;4934007;29;21434;-75
2022/06/09 12:42:44;;;;;;;7.37;2.30;;;26.50;93.40;;;;;;4916296;29;20576;-75
2022/06/09 12:45:24;;;;;;;4.80;1.90;;;26.50;92.60;;;;;;4934032;29;20572;-75
2022/06/09 12:48:09;;;;;;;4.90;1.57;;;26.40;92.40;;;;;;4933660;29;20632;-75
2022/06/09 12:50:42;;;;;;;6.30;1.40;;;26.20;92.70;;;;;;4922517;29;20588;-83
2022/06/09 12:53:17;;;;;;;8.23;1.83;;;26.10;93.10;;;;;;4936727;29;20675;-81
2022/06/09 12:56:04;;;;;;;3.97;1.73;;;25.90;92.90;;;;;;4945451;28;20590;-84
2022/06/09 12:58:46;;;;;;;1.90;1.10;;;25.70;92.80;;;;;;4969582;28;20976;-82
2022/06/09 13:01:19;;;;;;;6.13;1.33;;;25.50;92.80;;;;;;4953228;29;20568;-81
2022/06/09 13:03:52;;;;;;;2.17;0.90;;;25.30;93.40;;;;;;4919926;29;20586;-81
2022/06/09 13:06:40;;;;;;;3.00;1.30;;;25.10;93.90;;;;;;4935658;29;20658;-81
2022/06/09 13:09:33;;;;;;;3.17;1.40;;;24.90;94.90;;;;;;4936129;29;20722;-80
2022/06/09 13:15:05;;;;;;;2.77;1.90;;;24.30;95.80;;;;;;4921008;29;20572;-82
2022/06/09 13:17:37;;;;;;;4.63;1.57;;;24.10;95.70;;;;;;4953893;29;20615;-81
2022/06/09 13:20:11;;;;;;;3.00;1.70;;;23.80;95.40;;;;;;4904719;29;20594;-82
2022/06/09 13:22:37;;;;;;;2.20;1.03;;;23.50;94.90;;;;;;4935317;29;20568;-81
2022/06/09 13:25:04;;;;;;;1.53;0.70;;;23.20;95.00;;;;;;4933085;29;20605;-82
2022/06/09 13:27:32;;;;;;;1.93;0.80;;;23.00;95.20;;;;;;4953355;28;21363;-83
2022/06/09 13:30:26;;;;;;;1.90;1.20;;;22.70;95.50;;;;;;4900447;29;20599;-81
2022/06/09 13:32:53;;;;;;;2.60;0.90;;;22.50;95.70;;;;;;4888283;29;20589;-81
2022/06/09 13:35:39;;;;;;;1.40;0.80;;;22.40;96.00;;;;;;4907290;29;20750;-82